Time;durP1;ratioP1;P1;durP2;ratioP2;P2;SDS_P1;SDS_P2;PMS_P1;PMS_P2;Temp;Humidity;BMP_temperature;BMP_pressure;BME280_temperature;BME280_humidity;BME280_pressure;Samples;Min_cycle;Max_cycle;Signal;HPM_P1;HPM_P2
2022/05/22 00:01:40;;;;;;;0.20;0.20;;;;;;;;;;4951525;29;20762;-78
2022/05/22 00:04:07;;;;;;;0.08;0.08;;;;;;;;;;4948474;29;20453;-78
2022/05/22 00:06:33;;;;;;;0.10;0.10;;;;;;;;;;4935026;29;20426;-77
2022/05/22 00:08:59;;;;;;;0.10;0.10;;;;;;;;;;4934943;29;20434;-77
2022/05/22 00:11:25;;;;;;;0.10;0.10;;;;;;;;;;4951205;29;20995;-79
2022/05/22 00:13:51;;;;;;;0.10;0.10;;;;;;;;;;4950657;29;20414;-77
2022/05/22 00:16:36;;;;;;;0.70;0.20;;;;;;;;;;4951463;29;20452;-77
2022/05/22 00:19:22;;;;;;;0.10;0.10;;;;;;;;;;4934883;29;20445;-79
2022/05/22 00:21:48;;;;;;;0.10;0.10;;;;;;;;;;4934751;29;20797;-79
2022/05/22 00:24:15;;;;;;;0.10;0.10;;;;;;;;;;4935545;29;20516;-77
2022/05/22 00:26:41;;;;;;;0.00;0.00;;;;;;;;;;4951487;29;20528;-78
2022/05/22 00:29:08;;;;;;;0.10;0.10;;;;;;;;;;4950555;29;20841;-77
2022/05/22 00:31:34;;;;;;;0.10;0.10;;;;;;;;;;4951070;29;20410;-78
2022/05/22 00:34:00;;;;;;;0.10;0.10;;;;;;;;;;4950937;29;20425;-77
2022/05/22 00:36:26;;;;;;;0.10;0.10;;;;;;;;;;4951463;28;20493;-78
2022/05/22 00:38:52;;;;;;;0.00;0.00;;;;;;;;;;4954456;29;20417;-78
2022/05/22 00:41:19;;;;;;;0.10;0.10;;;;;;;;;;4939316;29;20455;-77
2022/05/22 00:43:45;;;;;;;0.00;0.00;;;;;;;;;;4955009;29;20429;-77
2022/05/22 00:46:13;;;;;;;0.10;0.10;;;;;;;;;;4954483;29;20484;-77
2022/05/22 00:48:40;;;;;;;0.20;0.20;;;;;;;;;;4953833;29;20438;-77
2022/05/22 00:51:11;;;;;;;0.00;0.00;;;;;;;;;;4954491;29;20809;-78
2022/05/22 00:53:39;;;;;;;0.10;0.10;;;;;;;;;;4955759;28;20522;-77
2022/05/22 00:56:07;;;;;;;0.00;0.00;;;;;;;;;;4954428;29;20439;-77
2022/05/22 00:58:33;;;;;;;0.00;0.00;;;;;;;;;;4954116;29;20484;-77
2022/05/22 01:00:59;;;;;;;0.30;0.20;;;;;;;;;;4954483;29;20421;-77
2022/05/22 01:03:26;;;;;;;0.10;0.10;;;;;;;;;;4954210;29;20537;-77
2022/05/22 01:05:53;;;;;;;0.10;0.10;;;;;;;;;;4954427;29;20433;-77
2022/05/22 01:08:20;;;;;;;0.10;0.10;;;;;;;;;;4938362;29;20410;-77
2022/05/22 01:10:47;;;;;;;0.10;0.10;;;;;;;;;;4954710;29;20896;-77
2022/05/22 01:13:15;;;;;;;0.10;0.10;;;;;;;;;;4953753;29;21034;-77
2022/05/22 01:15:41;;;;;;;0.10;0.10;;;;;;;;;;4954350;29;20426;-77
2022/05/22 01:18:07;;;;;;;0.10;0.10;;;;;;;;;;4937882;29;20487;-77
2022/05/22 01:20:33;;;;;;;0.10;0.10;;;;;;;;;;4954427;29;20429;-77
2022/05/22 01:22:59;;;;;;;0.20;0.10;;;;;;;;;;4953173;29;20757;-77
2022/05/22 01:25:25;;;;;;;0.20;0.20;;;;;;;;;;4937496;29;20547;-78
2022/05/22 01:27:53;;;;;;;0.20;0.20;;;;;;;;;;4954330;29;20414;-78
2022/05/22 01:30:24;;;;;;;0.10;0.10;;;;;;;;;;4953331;29;20472;-78
2022/05/22 01:32:50;;;;;;;0.30;0.30;;;;;;;;;;4953686;29;20996;-78
2022/05/22 01:35:19;;;;;;;0.20;0.20;;;;;;;;;;4936885;29;20417;-77
2022/05/22 01:37:45;;;;;;;0.10;0.10;;;;;;;;;;4953832;29;20470;-77
2022/05/22 01:40:11;;;;;;;0.00;0.00;;;;;;;;;;4954737;28;20406;-76
2022/05/22 01:42:37;;;;;;;0.10;0.10;;;;;;;;;;4954873;28;20410;-76
2022/05/22 01:45:05;;;;;;;0.10;0.10;;;;;;;;;;4936581;29;20417;-77
2022/05/22 01:47:35;;;;;;;0.00;0.00;;;;;;;;;;4937896;29;20531;-76
2022/05/22 01:50:01;;;;;;;0.00;0.00;;;;;;;;;;4951594;28;20502;-78
2022/05/22 01:52:27;;;;;;;0.00;0.00;;;;;;;;;;4921308;29;20477;-76
2022/05/22 01:54:53;;;;;;;0.00;0.00;;;;;;;;;;4953706;29;20434;-76
2022/05/22 01:57:19;;;;;;;0.03;0.03;;;;;;;;;;4936329;29;20426;-77
2022/05/22 01:59:45;;;;;;;0.00;0.00;;;;;;;;;;4937519;29;20441;-77
2022/05/22 02:02:12;;;;;;;0.00;0.00;;;;;;;;;;4953226;29;20477;-76
2022/05/22 02:04:38;;;;;;;0.10;0.10;;;;;;;;;;4952603;29;20416;-77
2022/05/22 02:09:48;;;;;;;0.20;0.20;;;;;;;;;;4952985;29;20559;-76
2022/05/22 02:12:14;;;;;;;0.00;0.00;;;;;;;;;;4952865;29;20492;-76
2022/05/22 02:14:40;;;;;;;0.10;0.10;;;;;;;;;;4954458;28;20813;-77
2022/05/22 02:17:07;;;;;;;0.00;0.00;;;;;;;;;;4952370;29;20773;-76
2022/05/22 02:19:33;;;;;;;0.10;0.10;;;;;;;;;;4953416;28;20410;-77
2022/05/22 02:21:59;;;;;;;0.10;0.10;;;;;;;;;;4952845;29;20449;-78
2022/05/22 02:24:25;;;;;;;0.00;0.00;;;;;;;;;;4952513;29;20421;-77
2022/05/22 02:26:51;;;;;;;0.10;0.10;;;;;;;;;;4952905;29;20425;-76
2022/05/22 02:29:17;;;;;;;0.00;0.00;;;;;;;;;;4952247;29;20508;-76
2022/05/22 02:31:43;;;;;;;0.00;0.00;;;;;;;;;;4953389;29;20426;-77
2022/05/22 02:34:09;;;;;;;0.10;0.10;;;;;;;;;;4952405;29;20493;-76
2022/05/22 02:36:35;;;;;;;0.00;0.00;;;;;;;;;;4953575;28;20410;-76
2022/05/22 02:39:01;;;;;;;0.00;0.00;;;;;;;;;;4952487;29;20405;-77
2022/05/22 02:41:27;;;;;;;0.10;0.10;;;;;;;;;;4936607;29;20425;-76
2022/05/22 02:43:54;;;;;;;0.30;0.20;;;;;;;;;;4952695;29;20884;-76
2022/05/22 02:46:20;;;;;;;0.10;0.10;;;;;;;;;;4952279;29;20425;-76
2022/05/22 02:48:46;;;;;;;0.10;0.10;;;;;;;;;;4951546;29;20789;-76
2022/05/22 02:51:14;;;;;;;0.10;0.10;;;;;;;;;;4952336;28;20472;-76
2022/05/22 02:53:40;;;;;;;0.10;0.10;;;;;;;;;;4952242;29;20495;-77
2022/05/22 02:56:11;;;;;;;0.10;0.10;;;;;;;;;;4952024;29;20840;-76
2022/05/22 02:58:37;;;;;;;0.00;0.00;;;;;;;;;;4936290;29;20421;-76
2022/05/22 03:01:03;;;;;;;0.00;0.00;;;;;;;;;;4952356;28;20501;-76
2022/05/22 03:03:30;;;;;;;0.10;0.10;;;;;;;;;;4952763;28;20472;-77
2022/05/22 03:08:40;;;;;;;0.00;0.00;;;;;;;;;;4938717;29;20445;-76
2022/05/22 03:11:07;;;;;;;0.00;0.00;;;;;;;;;;4952216;29;20421;-76
2022/05/22 03:13:33;;;;;;;0.05;0.05;;;;;;;;;;4951364;29;20762;-76
2022/05/22 03:16:00;;;;;;;0.00;0.00;;;;;;;;;;4951721;29;20418;-77
2022/05/22 03:18:26;;;;;;;0.10;0.10;;;;;;;;;;4951767;29;20541;-76
2022/05/22 03:20:52;;;;;;;0.10;0.10;;;;;;;;;;4952227;29;20432;-77
2022/05/22 03:23:18;;;;;;;0.00;0.00;;;;;;;;;;4951028;29;20429;-76
2022/05/22 03:25:47;;;;;;;0.40;0.20;;;;;;;;;;4936278;29;20513;-76
2022/05/22 03:28:14;;;;;;;0.10;0.10;;;;;;;;;;4951409;29;20434;-77
2022/05/22 03:30:40;;;;;;;0.10;0.10;;;;;;;;;;4951785;29;20573;-76
2022/05/22 03:33:06;;;;;;;0.10;0.10;;;;;;;;;;4951827;29;20418;-83
2022/05/22 03:35:32;;;;;;;0.08;0.08;;;;;;;;;;4950762;29;20441;-78
2022/05/22 03:37:58;;;;;;;0.10;0.10;;;;;;;;;;4951793;29;20418;-76
2022/05/22 03:40:25;;;;;;;0.10;0.10;;;;;;;;;;4951434;29;20418;-76
2022/05/22 03:42:51;;;;;;;0.10;0.10;;;;;;;;;;4952278;29;20413;-77
2022/05/22 03:45:17;;;;;;;0.10;0.10;;;;;;;;;;4950907;29;20418;-77
2022/05/22 03:47:44;;;;;;;0.10;0.10;;;;;;;;;;4935848;29;20429;-77
2022/05/22 03:50:11;;;;;;;0.10;0.10;;;;;;;;;;4935129;29;20441;-76
2022/05/22 03:52:40;;;;;;;0.10;0.10;;;;;;;;;;4951321;29;20428;-76
2022/05/22 03:55:07;;;;;;;0.10;0.10;;;;;;;;;;4950865;29;20425;-78
2022/05/22 03:57:33;;;;;;;0.00;0.00;;;;;;;;;;4951252;29;20478;-76
2022/05/22 04:00:10;;;;;;;0.10;0.10;;;;;;;;;;4935131;29;20417;-76
2022/05/22 04:02:36;;;;;;;0.10;0.10;;;;;;;;;;4951644;29;20457;-77
2022/05/22 04:05:03;;;;;;;0.10;0.10;;;;;;;;;;4919747;29;20418;-76
2022/05/22 04:07:29;;;;;;;0.10;0.10;;;;;;;;;;4950447;29;21064;-77
2022/05/22 04:09:58;;;;;;;0.00;0.00;;;;;;;;;;4950945;29;20814;-76
2022/05/22 04:12:24;;;;;;;0.10;0.10;;;;;;;;;;4937220;29;20496;-77
2022/05/22 04:14:53;;;;;;;0.10;0.10;;;;;;;;;;4940780;29;20043;-76
2022/05/22 04:17:19;;;;;;;0.10;0.10;;;;;;;;;;4955775;29;20087;-78
2022/05/22 04:19:45;;;;;;;0.10;0.10;;;;;;;;;;4956149;29;20402;-77
2022/05/22 04:22:11;;;;;;;0.10;0.10;;;;;;;;;;4939862;29;20439;-77
2022/05/22 04:27:22;;;;;;;0.10;0.10;;;;;;;;;;4941981;29;20093;-77
2022/05/22 04:29:48;;;;;;;0.10;0.10;;;;;;;;;;4955844;29;20043;-76
2022/05/22 04:32:14;;;;;;;0.10;0.10;;;;;;;;;;4956295;29;20058;-77
2022/05/22 04:34:40;;;;;;;0.40;0.25;;;;;;;;;;4956436;28;20109;-76
2022/05/22 04:37:06;;;;;;;0.10;0.10;;;;;;;;;;4955938;29;20102;-76
2022/05/22 04:39:32;;;;;;;0.10;0.10;;;;;;;;;;4955210;29;20071;-77
2022/05/22 04:41:58;;;;;;;0.65;0.65;;;;;;;;;;4955849;29;20039;-77
2022/05/22 04:44:24;;;;;;;0.10;0.10;;;;;;;;;;4955534;29;20057;-77
2022/05/22 04:46:51;;;;;;;0.10;0.10;;;;;;;;;;4955400;29;20051;-76
2022/05/22 04:49:17;;;;;;;0.10;0.10;;;;;;;;;;4938751;29;20051;-77
2022/05/22 04:51:43;;;;;;;0.10;0.10;;;;;;;;;;4955002;29;20043;-76
2022/05/22 04:54:10;;;;;;;0.00;0.00;;;;;;;;;;4956109;29;20055;-75
2022/05/22 04:56:36;;;;;;;0.00;0.00;;;;;;;;;;4954888;29;20051;-77
2022/05/22 04:59:02;;;;;;;0.10;0.10;;;;;;;;;;4955647;29;20113;-76
2022/05/22 05:01:28;;;;;;;0.28;0.28;;;;;;;;;;4955159;29;20086;-77
2022/05/22 05:03:55;;;;;;;0.10;0.10;;;;;;;;;;4924189;29;20431;-76
2022/05/22 05:06:21;;;;;;;0.10;0.10;;;;;;;;;;4939348;29;20047;-77
2022/05/22 05:08:47;;;;;;;0.10;0.10;;;;;;;;;;4955134;29;20047;-77
2022/05/22 05:11:13;;;;;;;0.10;0.10;;;;;;;;;;4954666;29;20051;-77
2022/05/22 05:13:40;;;;;;;0.10;0.10;;;;;;;;;;4954818;29;20387;-77
2022/05/22 05:16:11;;;;;;;0.10;0.10;;;;;;;;;;4939155;29;20557;-77
2022/05/22 05:18:38;;;;;;;0.10;0.10;;;;;;;;;;4939094;29;20087;-77
2022/05/22 05:21:09;;;;;;;0.10;0.10;;;;;;;;;;4954141;28;20417;-77
2022/05/22 05:23:36;;;;;;;0.10;0.10;;;;;;;;;;4936606;29;20955;-77
2022/05/22 05:26:02;;;;;;;0.00;0.00;;;;;;;;;;4937322;29;20428;-76
2022/05/22 05:28:28;;;;;;;0.10;0.10;;;;;;;;;;4954750;29;20518;-84
2022/05/22 05:30:54;;;;;;;0.03;0.03;;;;;;;;;;4953121;29;20422;-77
2022/05/22 05:33:20;;;;;;;;;;;;;;;;;;4939911;29;20051;-74
2022/05/22 05:35:46;;;;;;;;;;;;;;;;;;4954706;29;19922;-74
2022/05/22 05:38:12;;;;;;;;;;;;;;;;;;4956436;29;19973;-74
2022/05/22 05:40:38;;;;;;;;;;;;;;;;;;4953975;29;19926;-80
2022/05/22 05:43:05;;;;;;;;;;;;;;;;;;4955228;29;19926;-77
2022/05/22 05:45:31;;;;;;;;;;;;;;;;;;4954781;29;19973;-77
2022/05/22 05:47:57;;;;;;;;;;;;;;;;;;4955165;29;19922;-81
2022/05/22 05:50:23;;;;;;;;;;;;;;;;;;4954700;29;19923;-76
2022/05/22 05:52:49;;;;;;;;;;;;;;;;;;4954350;29;19980;-77
2022/05/22 05:55:15;;;;;;;;;;;;;;;;;;4955009;29;19927;-78
2022/05/22 05:57:41;;;;;;;;;;;;;;;;;;4954128;29;19929;-77
2022/05/22 06:00:07;;;;;;;;;;;;;;;;;;4955155;29;20034;-79
2022/05/22 06:02:33;;;;;;;;;;;;;;;;;;4938524;29;19930;-81
2022/05/22 06:04:59;;;;;;;;;;;;;;;;;;4954886;29;19922;-80
2022/05/22 06:07:25;;;;;;;;;;;;;;;;;;4938162;29;19926;-78
2022/05/22 06:09:51;;;;;;;;;;;;;;;;;;4954133;29;19923;-78
2022/05/22 06:12:17;;;;;;;;;;;;;;;;;;4937980;29;19977;-82
2022/05/22 06:14:43;;;;;;;;;;;;;;;;;;4953339;29;19969;-78
2022/05/22 06:17:09;;;;;;;;;;;;;;;;;;4951943;29;20322;-80
2022/05/22 06:22:19;;;;;;;;;;;;;;;;;;4953217;29;19929;-82
2022/05/22 06:24:45;;;;;;;;;;;;;;;;;;4936312;29;20008;-77
2022/05/22 06:27:11;;;;;;;;;;;;;;;;;;4937222;29;19961;-75
2022/05/22 06:29:37;;;;;;;;;;;;;;;;;;4953435;29;19922;-76
2022/05/22 06:32:03;;;;;;;;;;;;;;;;;;4952640;29;20275;-76
2022/05/22 06:34:29;;;;;;;;;;;;;;;;;;4952094;28;19922;-78
2022/05/22 06:36:55;;;;;;;;;;;;;;;;;;4952836;29;19929;-76
2022/05/22 06:42:06;;;;;;;;;;;;;;;;;;4949979;29;20408;-76
2022/05/22 06:44:32;;;;;;;;;;;;;;;;;;4936501;29;19926;-76
2022/05/22 06:46:58;;;;;;;;;;;;;;;;;;4951885;29;19922;-82
2022/05/22 06:49:24;;;;;;;;;;;;;;;;;;4935555;29;19927;-80
2022/05/22 06:51:52;;;;;;;;;;;;;;;;;;4952868;29;19922;-79
2022/05/22 06:54:18;;;;;;;;;;;;;;;;;;4953831;29;19996;-80
2022/05/22 06:56:44;;;;;;;;;;;;;;;;;;4951545;29;20139;-81
2022/05/22 06:59:10;;;;;;;;;;;;;;;;;;4952787;29;19926;-76
2022/05/22 07:01:38;;;;;;;;;;;;;;;;;;4952191;29;19923;-84
2022/05/22 07:04:04;;;;;;;;;;;;;;;;;;4936305;29;20362;-79
2022/05/22 07:06:30;;;;;;;;;;;;;;;;;;4936350;29;19922;-79
2022/05/22 07:08:55;;;;;;;;;;;;;;;;;;4936938;29;19926;-77
2022/05/22 07:11:40;;;;;;;;;;;;;;;;;;4953695;29;20377;-76
2022/05/22 07:14:06;;;;;;;;;;;;;;;;;;4953326;29;19923;-78
2022/05/22 07:16:32;;;;;;;;;;;;;;;;;;4953112;29;19985;-77
2022/05/22 07:18:58;;;;;;;;;;;;;;;;;;4954302;29;19935;-78
2022/05/22 07:21:27;;;;;;;;;;;;;;;;;;4952390;29;19923;-78
2022/05/22 07:23:53;;;;;;;;;;;;;;;;;;4952951;29;20374;-74
2022/05/22 07:26:19;;;;;;;;;;;;;;;;;;4953306;29;19923;-76
2022/05/22 07:28:45;;;;;;;;;;;;;;;;;;4951845;29;20193;-76
2022/05/22 07:31:11;;;;;;;;;;;;;;;;;;4952686;29;20057;-75
2022/05/22 07:33:37;;;;;;;;;;;;;;;;;;4951911;29;19923;-78
2022/05/22 07:36:03;;;;;;;;;;;;;;;;;;4952653;29;19923;-78
2022/05/22 07:38:29;;;;;;;;;;;;;;;;;;4951976;29;20358;-75
2022/05/22 07:40:55;;;;;;;;;;;;;;;;;;4952716;29;20278;-78
2022/05/22 07:43:21;;;;;;;;;;;;;;;;;;4953376;29;19922;-74
2022/05/22 07:45:47;;;;;;;;;;;;;;;;;;4952876;29;19993;-78
2022/05/22 07:48:13;;;;;;;;;;;;;;;;;;4952765;29;19923;-76
2022/05/22 07:50:39;;;;;;;;;;;;;;;;;;4937002;29;19922;-76
2022/05/22 07:53:05;;;;;;;;;;;;;;;;;;4952371;29;19918;-74
2022/05/22 07:55:31;;;;;;;;;;;;;;;;;;4953168;29;19927;-82
2022/05/22 07:57:57;;;;;;;;;;;;;;;;;;4935463;29;20404;-79
2022/05/22 08:00:23;;;;;;;;;;;;;;;;;;4953415;29;19969;-77
2022/05/22 08:02:49;;;;;;;;;;;;;;;;;;4952987;29;19923;-77
2022/05/22 08:05:17;;;;;;;;;;;;;;;;;;4953041;29;20004;-77
2022/05/22 08:07:43;;;;;;;;;;;;;;;;;;4952798;29;19973;-76
2022/05/22 08:10:08;;;;;;;;;;;;;;;;;;4936154;29;19926;-82
2022/05/22 08:12:34;;;;;;;;;;;;;;;;;;4934771;29;19922;-77
2022/05/22 08:15:00;;;;;;;;;;;;;;;;;;4936011;29;19923;-80
2022/05/22 08:17:26;;;;;;;;;;;;;;;;;;4951897;29;19923;-78
2022/05/22 08:19:52;;;;;;;;;;;;;;;;;;4951242;29;19966;-79
2022/05/22 08:22:18;;;;;;;;;;;;;;;;;;4952838;29;19927;-78
2022/05/22 08:24:44;;;;;;;;;;;;;;;;;;4952596;29;20453;-80
2022/05/22 08:27:10;;;;;;;;;;;;;;;;;;4952294;29;20016;-77
2022/05/22 08:29:36;;;;;;;;;;;;;;;;;;4952274;29;19958;-80
2022/05/22 08:32:02;;;;;;;;;;;;;;;;;;4951514;29;19978;-78
2022/05/22 08:34:28;;;;;;;;;;;;;;;;;;4954138;29;19929;-78
2022/05/22 08:36:54;;;;;;;;;;;;;;;;;;4952366;29;20085;-83
2022/05/22 08:39:20;;;;;;;;;;;;;;;;;;4952047;29;19930;-83
2022/05/22 08:41:46;;;;;;;;;;;;;;;;;;4952630;29;19922;-80
2022/05/22 08:44:12;;;;;;;;;;;;;;;;;;4951389;29;19918;-80
2022/05/22 08:46:38;;;;;;;;;;;;;;;;;;4936019;29;19997;-80
2022/05/22 08:49:04;;;;;;;;;;;;;;;;;;4951292;29;19984;-79
2022/05/22 08:51:30;;;;;;;;;;;;;;;;;;4952027;29;19970;-79
2022/05/22 08:53:58;;;;;;;;;;;;;;;;;;4951443;29;19922;-81
2022/05/22 08:59:32;;;;;;;0.63;0.40;;;;;;;;;;4953702;28;20094;-80
2022/05/22 09:02:10;;;;;;;0.10;0.10;;;;;;;;;;4938792;29;20051;-81
2022/05/22 09:04:37;;;;;;;0.10;0.10;;;;;;;;;;4939169;29;20105;-78
2022/05/22 09:07:06;;;;;;;0.10;0.10;;;;;;;;;;4955341;29;20080;-81
2022/05/22 09:09:35;;;;;;;0.10;0.10;;;;;;;;;;4938076;29;20085;-80
2022/05/22 09:12:16;;;;;;;0.10;0.10;;;;;;;;;;4954566;29;20603;-79
2022/05/22 09:14:47;;;;;;;0.10;0.10;;;;;;;;;;4955210;29;20472;-78
2022/05/22 09:17:18;;;;;;;0.20;0.20;;;;;;;;;;4955161;29;20044;-79
2022/05/22 09:19:50;;;;;;;0.10;0.10;;;;;;;;;;4954900;29;20043;-82
2022/05/22 09:22:35;;;;;;;0.20;0.20;;;;;;;;;;4937946;29;20051;-80
2022/05/22 09:25:17;;;;;;;0.10;0.10;;;;;;;;;;4954329;29;20381;-81
2022/05/22 09:27:47;;;;;;;0.10;0.10;;;;;;;;;;4954307;29;20051;-78
2022/05/22 09:30:20;;;;;;;0.10;0.10;;;;;;;;;;4953542;29;20051;-77
2022/05/22 09:33:05;;;;;;;0.20;0.20;;;;;;;;;;4953513;29;20047;-82
2022/05/22 09:35:40;;;;;;;0.10;0.10;;;;;;;;;;4935390;29;20529;-83
2022/05/22 09:38:25;;;;;;;0.10;0.10;;;;;;;;;;4937032;29;20137;-81
2022/05/22 09:40:56;;;;;;;0.25;0.25;;;;;;;;;;4952961;29;20058;-77
2022/05/22 09:43:37;;;;;;;0.10;0.10;;;;;;;;;;4936545;29;20131;-78
2022/05/22 09:46:03;;;;;;;0.10;0.10;;;;;;;;;;4952790;29;20101;-77
2022/05/22 09:48:29;;;;;;;0.10;0.10;;;;;;;;;;4953592;29;20507;-77
2022/05/22 09:50:55;;;;;;;0.10;0.10;;;;;;;;;;4953489;29;20073;-79
2022/05/22 09:53:39;;;;;;;0.15;0.15;;;;;;;;;;4936985;29;20276;-78
2022/05/22 09:56:17;;;;;;;0.10;0.10;;;;;;;;;;4953700;29;20051;-78
2022/05/22 09:59:04;;;;;;;0.10;0.10;;;;;;;;;;4938139;29;20115;-75
2022/05/22 10:01:39;;;;;;;0.52;0.52;;;;;;;;;;4925218;28;20060;-76
2022/05/22 10:04:09;;;;;;;0.10;0.10;;;;;;;;;;4953035;29;20046;-78
2022/05/22 10:06:48;;;;;;;0.10;0.10;;;;;;;;;;4954236;29;20501;-82
2022/05/22 10:09:34;;;;;;;0.38;0.38;;;;;;;;;;4935757;29;20047;-83
2022/05/22 10:12:39;;;;;;;0.10;0.10;;;;;;;;;;4937740;29;20048;-82
2022/05/22 10:15:11;;;;;;;0.10;0.10;;;;;;;;;;4863254;29;20096;-81
2022/05/22 10:17:39;;;;;;;0.10;0.10;;;;;;;;;;4863372;29;20091;-82
2022/05/22 10:20:14;;;;;;;0.20;0.20;;;;;;;;;;4899223;29;20521;-86
2022/05/22 10:22:50;;;;;;;0.10;0.10;;;;;;;;;;4938118;29;20058;-91
2022/05/22 10:25:34;;;;;;;0.13;0.13;;;;;;;;;;4939085;29;20518;-94
2022/05/22 10:28:04;;;;;;;0.10;0.10;;;;;;;;;;4938496;29;20051;-79
2022/05/22 10:30:32;;;;;;;0.10;0.10;;;;;;;;;;4952630;29;20121;-77
2022/05/22 10:33:07;;;;;;;0.10;0.10;;;;;;;;;;4936251;29;20113;-77
2022/05/22 10:35:43;;;;;;;3.00;1.08;;;;;;;;;;4951953;29;20150;-77
2022/05/22 10:38:31;;;;;;;6.93;0.63;;;;;;;;;;4953740;28;20137;-77
2022/05/22 10:43:47;;;;;;;0.10;0.10;;;;;;;;;;4952399;29;20058;-83
2022/05/22 10:46:13;;;;;;;0.10;0.10;;;;;;;;;;4951967;29;20137;-82
2022/05/22 10:48:49;;;;;;;0.10;0.10;;;;;;;;;;4952637;29;20055;-81
2022/05/22 10:51:22;;;;;;;0.10;0.10;;;;;;;;;;4937514;28;20050;-84
2022/05/22 10:53:51;;;;;;;0.10;0.10;;;;;;;;;;4940406;28;20117;-80
2022/05/22 10:56:19;;;;;;;0.10;0.10;;;;;;;;;;4938906;28;20149;-81
2022/05/22 10:59:05;;;;;;;0.10;0.10;;;;;;;;;;4955784;28;20093;-82
2022/05/22 11:01:36;;;;;;;0.10;0.10;;;;;;;;;;4954845;28;20423;-79
2022/05/22 11:04:02;;;;;;;0.00;0.00;;;;;;;;;;4939281;28;20055;-80
2022/05/22 11:06:28;;;;;;;0.10;0.10;;;;;;;;;;4955327;28;20138;-79
2022/05/22 11:08:56;;;;;;;0.08;0.08;;;;;;;;;;4939367;28;20494;-78
2022/05/22 11:11:26;;;;;;;0.00;0.00;;;;;;;;;;4938890;28;20141;-80
2022/05/22 11:13:53;;;;;;;0.10;0.10;;;;;;;;;;4955891;28;20086;-79
2022/05/22 11:16:25;;;;;;;0.00;0.00;;;;;;;;;;4939862;28;20043;-79
2022/05/22 11:19:01;;;;;;;0.10;0.10;;;;;;;;;;4939845;28;20116;-77
2022/05/22 11:21:32;;;;;;;0.10;0.10;;;;;;;;;;4938865;28;20089;-78
2022/05/22 11:24:16;;;;;;;0.00;0.00;;;;;;;;;;4939714;28;20051;-77
2022/05/22 11:26:54;;;;;;;0.03;0.03;;;;;;;;;;4956588;28;20474;-77
2022/05/22 11:29:29;;;;;;;0.10;0.10;;;;;;;;;;4938799;28;20049;-75
2022/05/22 11:32:14;;;;;;;0.10;0.10;;;;;;;;;;4939307;28;20490;-74
2022/05/22 11:34:55;;;;;;;0.10;0.10;;;;;;;;;;4955154;28;20082;-74
2022/05/22 11:37:21;;;;;;;0.10;0.10;;;;;;;;;;4955946;28;20083;-76
2022/05/22 11:39:47;;;;;;;0.10;0.10;;;;;;;;;;4939161;28;20493;-81
2022/05/22 11:42:26;;;;;;;0.10;0.10;;;;;;;;;;4940136;28;20493;-78
2022/05/22 11:45:07;;;;;;;0.00;0.00;;;;;;;;;;4940602;28;20047;-78
2022/05/22 11:47:33;;;;;;;0.00;0.00;;;;;;;;;;4955874;28;20134;-76
2022/05/22 11:50:05;;;;;;;0.30;0.30;;;;;;;;;;4955692;28;20146;-78
2022/05/22 11:52:54;;;;;;;0.08;0.08;;;;;;;;;;4955834;28;20129;-77
2022/05/22 11:55:20;;;;;;;0.00;0.00;;;;;;;;;;4939277;28;20490;-80
2022/05/22 11:57:55;;;;;;;0.10;0.10;;;;;;;;;;4939032;28;20051;-77
2022/05/22 12:00:28;;;;;;;0.00;0.00;;;;;;;;;;4955404;28;20410;-76
2022/05/22 12:03:06;;;;;;;0.45;0.45;;;;;;;;;;4955333;28;20528;-74
2022/05/22 12:05:44;;;;;;;0.10;0.10;;;;;;;;;;4954241;28;20101;-76
2022/05/22 12:08:29;;;;;;;0.10;0.10;;;;;;;;;;4955174;28;20043;-80
2022/05/22 12:11:04;;;;;;;0.17;0.17;;;;;;;;;;4954834;28;20090;-77
2022/05/22 12:13:36;;;;;;;0.20;0.20;;;;;;;;;;4938223;28;20046;-83
2022/05/22 12:16:17;;;;;;;0.10;0.10;;;;;;;;;;4937854;28;20054;-80
2022/05/22 12:19:03;;;;;;;0.00;0.00;;;;;;;;;;4953731;28;20074;-79
2022/05/22 12:21:35;;;;;;;0.10;0.10;;;;;;;;;;4953870;28;20475;-77
2022/05/22 12:24:16;;;;;;;0.10;0.10;;;;;;;;;;4938849;28;20513;-82
2022/05/22 12:26:42;;;;;;;0.10;0.10;;;;;;;;;;4954462;28;20118;-82
2022/05/22 12:29:11;;;;;;;0.10;0.10;;;;;;;;;;4970498;28;20065;-85
2022/05/22 12:31:37;;;;;;;0.75;0.75;;;;;;;;;;4938058;28;20402;-78
2022/05/22 12:34:07;;;;;;;0.10;0.10;;;;;;;;;;4956533;28;20053;-79
2022/05/22 12:36:34;;;;;;;0.10;0.10;;;;;;;;;;4957432;28;20052;-77
2022/05/22 12:39:06;;;;;;;0.00;0.00;;;;;;;;;;4958081;28;20049;-76
2022/05/22 12:41:45;;;;;;;0.47;0.43;;;;;;;;;;4958947;28;20126;-75
2022/05/22 12:44:12;;;;;;;0.10;0.10;;;;;;;;;;4957956;28;20082;-77
2022/05/22 12:46:39;;;;;;;0.00;0.00;;;;;;;;;;4957756;28;20050;-78
2022/05/22 12:49:20;;;;;;;0.10;0.10;;;;;;;;;;4954974;29;20596;-79
2022/05/22 12:51:56;;;;;;;0.88;0.80;;;;;;;;;;4955102;29;20039;-84
2022/05/22 12:54:24;;;;;;;0.10;0.10;;;;;;;;;;4937795;29;20058;-85
2022/05/22 12:56:50;;;;;;;0.10;0.10;;;;;;;;;;4954453;29;20058;-79
2022/05/22 12:59:19;;;;;;;0.10;0.10;;;;;;;;;;4954284;29;20475;-82
2022/05/22 13:01:48;;;;;;;0.00;0.00;;;;;;;;;;4954900;29;20105;-82
2022/05/22 13:04:18;;;;;;;0.10;0.10;;;;;;;;;;4938676;29;20222;-80
2022/05/22 13:06:53;;;;;;;0.00;0.00;;;;;;;;;;4955181;29;20516;-84
2022/05/22 13:09:31;;;;;;;0.00;0.00;;;;;;;;;;4955247;29;20065;-79
2022/05/22 13:11:59;;;;;;;0.10;0.10;;;;;;;;;;4956240;29;20043;-77
2022/05/22 13:15:01;;;;;;;0.10;0.10;;;;;;;;;;4955470;29;20062;-78
2022/05/22 13:17:50;;;;;;;0.10;0.10;;;;;;;;;;4881674;29;20079;-77
2022/05/22 13:20:31;;;;;;;0.10;0.10;;;;;;;;;;4952789;29;20062;-78
2022/05/22 13:23:01;;;;;;;0.10;0.10;;;;;;;;;;4957050;28;20142;-77
2022/05/22 13:25:29;;;;;;;0.10;0.10;;;;;;;;;;4957238;28;20047;-77
2022/05/22 13:27:55;;;;;;;0.00;0.00;;;;;;;;;;4939330;29;20047;-77
2022/05/22 13:30:24;;;;;;;0.10;0.10;;;;;;;;;;4956524;28;20050;-77
2022/05/22 13:32:52;;;;;;;0.00;0.00;;;;;;;;;;4955692;29;20562;-77
2022/05/22 13:35:31;;;;;;;0.20;0.20;;;;;;;;;;4955635;29;20135;-77
2022/05/22 13:37:57;;;;;;;0.10;0.10;;;;;;;;;;4954943;29;20553;-79
2022/05/22 13:40:23;;;;;;;0.10;0.10;;;;;;;;;;4923751;29;20053;-85
2022/05/22 13:43:03;;;;;;;0.10;0.10;;;;;;;;;;4954914;29;20047;-78
2022/05/22 13:45:41;;;;;;;0.00;0.00;;;;;;;;;;4953383;28;20102;-81
2022/05/22 13:48:21;;;;;;;0.05;0.05;;;;;;;;;;4938592;29;20057;-80
2022/05/22 13:54:15;;;;;;;0.10;0.10;;;;;;;;;;4954558;29;20141;-81
2022/05/22 13:56:50;;;;;;;0.00;0.00;;;;;;;;;;4954560;29;20093;-83
2022/05/22 13:59:21;;;;;;;0.10;0.10;;;;;;;;;;4938544;29;20099;-82
2022/05/22 14:01:47;;;;;;;0.10;0.10;;;;;;;;;;4938812;29;20482;-82
2022/05/22 14:04:14;;;;;;;0.00;0.00;;;;;;;;;;4954569;29;20047;-82
2022/05/22 14:06:41;;;;;;;0.10;0.10;;;;;;;;;;4953823;29;20380;-81
2022/05/22 14:09:16;;;;;;;0.90;0.90;;;;;;;;;;4953642;29;20467;-80
2022/05/22 14:11:49;;;;;;;0.10;0.10;;;;;;;;;;4938250;29;20089;-78
2022/05/22 14:14:26;;;;;;;0.38;0.38;;;;;;;;;;4954349;29;20113;-79
2022/05/22 14:17:03;;;;;;;0.10;0.10;;;;;;;;;;4953474;29;20550;-78
2022/05/22 14:19:35;;;;;;;0.10;0.10;;;;;;;;;;4954136;29;20130;-80
2022/05/22 14:22:14;;;;;;;0.10;0.10;;;;;;;;;;4954750;28;20488;-77
2022/05/22 14:24:53;;;;;;;0.10;0.10;;;;;;;;;;4953308;29;20054;-78
2022/05/22 14:27:19;;;;;;;0.10;0.10;;;;;;;;;;4954825;28;20043;-78
2022/05/22 14:29:45;;;;;;;0.10;0.10;;;;;;;;;;4953510;29;20533;-78
2022/05/22 14:32:19;;;;;;;0.10;0.10;;;;;;;;;;4954025;29;20138;-80
2022/05/22 14:34:45;;;;;;;0.10;0.10;;;;;;;;;;4937188;29;20054;-80
2022/05/22 14:37:12;;;;;;;0.10;0.10;;;;;;;;;;4952731;29;20134;-78
2022/05/22 14:39:54;;;;;;;0.10;0.10;;;;;;;;;;4952604;29;20082;-79
2022/05/22 14:42:22;;;;;;;0.10;0.10;;;;;;;;;;4953816;29;20130;-78
2022/05/22 14:44:48;;;;;;;0.10;0.10;;;;;;;;;;4952501;29;20054;-79
2022/05/22 14:47:30;;;;;;;0.10;0.10;;;;;;;;;;4936795;29;20141;-77
2022/05/22 14:49:58;;;;;;;0.10;0.10;;;;;;;;;;4951284;29;20554;-76
2022/05/22 14:52:41;;;;;;;0.10;0.10;;;;;;;;;;4951816;29;20051;-78
2022/05/22 14:55:43;;;;;;;0.00;0.00;;;;;;;;;;4951237;28;20050;-80
2022/05/22 14:58:22;;;;;;;0.20;0.20;;;;;;;;;;4877851;29;20109;-81
2022/05/22 15:00:52;;;;;;;0.63;0.63;;;;;;;;;;4943815;29;20067;-81
2022/05/22 15:03:24;;;;;;;0.00;0.00;;;;;;;;;;4953371;29;20590;-80
2022/05/22 15:05:52;;;;;;;0.00;0.00;;;;;;;;;;4952823;29;20048;-78
2022/05/22 15:08:23;;;;;;;0.10;0.10;;;;;;;;;;4951706;29;20367;-80
2022/05/22 15:10:50;;;;;;;0.10;0.10;;;;;;;;;;4936149;29;20039;-78
2022/05/22 15:13:19;;;;;;;0.17;0.17;;;;;;;;;;4938132;29;20055;-80
2022/05/22 15:15:45;;;;;;;0.10;0.10;;;;;;;;;;4953038;29;20051;-76
2022/05/22 15:18:20;;;;;;;0.00;0.00;;;;;;;;;;4952388;29;20050;-79
2022/05/22 15:20:47;;;;;;;0.00;0.00;;;;;;;;;;4935936;29;20051;-79
2022/05/22 15:26:17;;;;;;;0.10;0.10;;;;;;;;;;4951373;29;20058;-80
2022/05/22 15:28:43;;;;;;;0.20;0.20;;;;;;;;;;4952819;29;20047;-81
2022/05/22 15:31:11;;;;;;;0.45;0.45;;;;;;;;;;4935705;29;20054;-79
2022/05/22 15:33:46;;;;;;;0.40;0.40;;;;;;;;;;4936190;29;20487;-77
2022/05/22 15:36:21;;;;;;;0.10;0.10;;;;;;;;;;4951523;29;20051;-77
2022/05/22 15:38:52;;;;;;;0.10;0.10;;;;;;;;;;4935100;29;20137;-78
2022/05/22 15:41:27;;;;;;;0.10;0.10;;;;;;;;;;4934065;29;20433;-81
2022/05/22 15:44:13;;;;;;;0.10;0.10;;;;;;;;;;4951217;29;20566;-79
2022/05/22 15:46:49;;;;;;;0.10;0.10;;;;;;;;;;4951842;29;20050;-79
2022/05/22 15:52:07;;;;;;;0.10;0.10;;;;;;;;;;4953712;28;20589;-76